Time;durP1;ratioP1;P1;durP2;ratioP2;P2;SDS_P1;SDS_P2;PMS_P1;PMS_P2;Temp;Humidity;BMP_temperature;BMP_pressure;BME280_temperature;BME280_humidity;BME280_pressure;Samples;Min_cycle;Max_cycle;Signal;HPM_P1;HPM_P2
2023/08/16 00:07:35;;;;;;;4.15;2.60;;;;;;;18.96;100.00;97938.78;18230770;32;20085;-56
2023/08/16 00:17:38;;;;;;;2.50;2.20;;;;;;;18.84;100.00;97944.03;18221709;32;20085;-56
2023/08/16 00:27:41;;;;;;;3.57;2.23;;;;;;;18.73;100.00;97953.66;18240095;32;20055;-56
2023/08/16 00:37:44;;;;;;;2.92;2.25;;;;;;;18.66;100.00;97936.91;18240336;32;20063;-56
2023/08/16 00:47:47;;;;;;;5.10;2.50;;;;;;;18.57;100.00;97934.94;18239183;32;20100;-56
2023/08/16 00:57:50;;;;;;;3.37;2.47;;;;;;;18.49;100.00;97932.97;18238073;32;20076;-57
2023/08/16 01:07:53;;;;;;;4.27;2.60;;;;;;;18.41;100.00;97922.78;18238666;32;20332;-57
2023/08/16 01:17:58;;;;;;;2.80;2.13;;;;;;;18.34;100.00;97911.47;18238494;32;20070;-57
2023/08/16 01:28:02;;;;;;;2.72;2.35;;;;;;;18.23;100.00;97914.47;18237612;32;20081;-56
2023/08/16 01:38:05;;;;;;;;;;;;;;;18.12;100.00;97913.13;18237460;32;20089;-56
2023/08/16 01:48:09;;;;;;;4.10;2.47;;;;;;;18.05;100.00;97910.06;18236973;32;19949;-57
2023/08/16 01:58:12;;;;;;;3.83;2.50;;;;;;;17.98;100.00;97905.03;18236591;32;20054;-57
2023/08/16 02:08:15;;;;;;;3.08;2.50;;;;;;;17.94;100.00;97904.03;18235048;32;20084;-57
2023/08/16 02:18:17;;;;;;;3.53;2.40;;;;;;;17.88;100.00;97900.59;18234350;32;20417;-57
2023/08/16 02:28:20;;;;;;;2.33;1.80;;;;;;;17.83;100.00;97903.44;18235008;32;20063;-56
2023/08/16 02:38:22;;;;;;;2.43;2.03;;;;;;;17.73;100.00;97906.41;18234509;32;20100;-57
2023/08/16 02:48:25;;;;;;;5.57;2.20;;;;;;;17.68;100.00;97906.53;18232753;32;20055;-57
2023/08/16 02:58:27;;;;;;;4.03;2.55;;;;;;;17.61;100.00;97907.00;18233643;32;20065;-57
2023/08/16 03:08:30;;;;;;;3.35;2.20;;;;;;;17.61;100.00;97907.00;18233010;32;20066;-56
2023/08/16 03:18:32;;;;;;;3.08;2.08;;;;;;;17.57;100.00;97906.81;18232938;32;20165;-57
2023/08/16 03:28:35;;;;;;;2.90;2.27;;;;;;;17.49;100.00;97907.53;18232327;32;20050;-57
2023/08/16 03:38:38;;;;;;;3.17;2.50;;;;;;;17.45;100.00;97912.81;18231576;32;20103;-56
2023/08/16 03:48:41;;;;;;;2.70;2.30;;;;;;;17.36;100.00;97911.13;18233207;32;20066;-57
2023/08/16 03:58:45;;;;;;;2.63;2.00;;;;;;;17.24;100.00;97914.41;18241843;32;20077;-57
2023/08/16 04:08:48;;;;;;;;;;;;;;;17.13;100.00;97924.75;18241441;32;20106;-56
2023/08/16 04:18:53;;;;;;;4.70;2.62;;;;;;;17.08;100.00;97924.88;18241106;32;20009;-57
2023/08/16 04:28:56;;;;;;;3.33;3.00;;;;;;;17.05;100.00;97917.28;18226968;32;20094;-57
2023/08/16 04:38:59;;;;;;;3.23;2.73;;;;;;;17.17;100.00;97920.31;18239539;32;20062;-56
2023/08/16 04:49:06;;;;;;;3.47;2.50;;;;;;;17.21;100.00;97948.63;18239433;32;20468;-57
2023/08/16 04:59:09;;;;;;;4.75;2.85;;;;;;;17.26;100.00;97940.28;18225228;32;20352;-56
2023/08/16 05:09:11;;;;;;;4.90;3.03;;;;;;;17.30;100.00;97947.91;18237266;32;20070;-57
2023/08/16 05:19:16;;;;;;;7.10;2.73;;;;;;;17.40;100.00;97951.22;18237296;32;20055;-56
2023/08/16 05:29:22;;;;;;;2.62;2.25;;;;;;;17.55;100.00;97946.50;18236521;32;20072;-56
2023/08/16 05:39:32;;;;;;;3.55;2.40;;;;;;;17.75;100.00;97945.22;18237265;32;20098;-56
2023/08/16 05:49:39;;;;;;;3.92;2.65;;;;;;;17.95;100.00;97942.00;18237050;32;20062;-57
2023/08/16 05:59:46;;;;;;;3.05;2.58;;;;;;;18.20;100.00;97952.59;18235244;32;20430;-57
2023/08/16 06:09:57;;;;;;;3.37;3.00;;;;;;;18.46;100.00;97956.31;18236081;32;20118;-57
2023/08/16 06:20:00;;;;;;;3.80;2.75;;;;;;;18.73;100.00;97957.22;18235315;32;20050;-57
2023/08/16 06:30:08;;;;;;;4.30;2.70;;;;;;;19.03;100.00;97952.00;18234023;32;20078;-56
2023/08/16 06:40:20;;;;;;;3.20;2.90;;;;;;;19.27;100.00;97957.06;18233527;32;20147;-56
2023/08/16 06:50:24;;;;;;;5.22;3.62;;;;;;;19.68;100.00;97956.91;18233940;32;20144;-57
2023/08/16 07:00:32;;;;;;;5.87;3.97;;;;;;;20.07;100.00;97964.19;18233040;32;20095;-57
2023/08/16 07:10:44;;;;;;;5.87;4.03;;;;;;;20.37;100.00;97971.72;18233353;32;20077;-57
2023/08/16 07:20:47;;;;;;;4.45;3.90;;;;;;;20.54;100.00;97968.94;18232859;32;20085;-57
2023/08/16 07:30:53;;;;;;;;;;;;;;;20.75;100.00;97977.28;18232237;32;20469;-57
2023/08/16 07:40:56;;;;;;;4.35;3.50;;;;;;;21.09;100.00;97972.75;18231962;32;20313;-56
2023/08/16 07:50:59;;;;;;;3.62;3.10;;;;;;;21.39;100.00;97972.75;18231284;32;20086;-57
2023/08/16 08:01:03;;;;;;;4.97;3.80;;;;;;;21.75;100.00;97981.53;18231094;32;20086;-57
2023/08/16 08:11:08;;;;;;;5.03;3.90;;;;;;;22.15;100.00;97983.78;18229421;32;20054;-57
2023/08/16 08:21:11;;;;;;;6.30;3.80;;;;;;;22.49;100.00;97979.09;18229134;32;20043;-57
2023/08/16 08:31:15;;;;;;;4.78;3.12;;;;;;;22.87;100.00;97980.72;18229816;32;20059;-57
2023/08/16 08:41:21;;;;;;;6.97;4.18;;;;;;;23.27;100.00;97969.03;18237596;32;20137;-57
2023/08/16 08:51:35;;;;;;;4.37;3.60;;;;;;;23.65;100.00;97973.34;18238355;32;20054;-57
2023/08/16 09:01:39;;;;;;;7.40;4.50;;;;;;;24.00;100.00;97963.69;18239106;32;20092;-57
2023/08/16 09:11:43;;;;;;;5.72;4.30;;;;;;;24.45;100.00;97968.06;18237257;32;20066;-57
2023/08/16 09:21:46;;;;;;;6.90;4.95;;;;;;;24.87;100.00;97975.03;18238188;32;20114;-57
2023/08/16 09:31:49;;;;;;;5.40;4.82;;;;;;;25.24;100.00;97965.63;18237253;32;20466;-57
2023/08/16 09:41:52;;;;;;;7.82;4.93;;;;;;;25.57;100.00;97962.44;18235777;32;20047;-56
2023/08/16 09:51:56;;;;;;;4.72;4.28;;;;;;;25.81;100.00;97958.59;18235527;32;20199;-57
2023/08/16 10:02:03;;;;;;;5.15;4.32;;;;;;;26.12;100.00;97950.50;18235337;32;20081;-57
2023/08/16 10:12:11;;;;;;;6.60;5.05;;;;;;;26.41;100.00;97951.03;18236126;32;20386;-57
2023/08/16 10:22:37;;;;;;;5.32;4.80;;;;;;;26.73;100.00;97937.75;18235488;32;20054;-56
2023/08/16 10:32:45;;;;;;;5.85;5.22;;;;;;;27.02;100.00;97927.91;18235147;32;20054;-57
2023/08/16 10:42:56;;;;;;;5.32;4.78;;;;;;;27.41;100.00;97920.53;18234527;32;20063;-57
2023/08/16 10:53:00;;;;;;;5.03;4.40;;;;;;;27.68;100.00;97918.50;18234349;32;20491;-57
2023/08/16 11:03:16;;;;;;;5.37;4.80;;;;;;;27.90;100.00;97908.44;18232100;32;20143;-57
2023/08/16 11:13:19;;;;;;;5.37;4.50;;;;;;;28.16;92.76;97902.03;18232337;32;20094;-57
2023/08/16 11:23:33;;;;;;;5.68;4.75;;;;;;;28.46;81.98;97897.50;18219058;32;20047;-57
2023/08/16 11:33:40;;;;;;;6.68;4.50;;;;;;;28.89;95.13;97889.53;18231377;32;20110;-57
2023/08/16 11:44:04;;;;;;;7.62;4.93;;;;;;;29.35;89.33;97883.44;18229618;32;20118;-57
2023/08/16 11:54:18;;;;;;;9.23;3.90;;;;;;;29.54;87.96;97867.63;18231230;32;20082;-57
2023/08/16 12:04:24;;;;;;;6.03;4.37;;;;;;;29.82;73.00;97871.69;18231083;32;20375;-57
2023/08/16 12:14:28;;;;;;;4.12;3.62;;;;;;;30.00;68.33;97864.22;18236975;32;20058;-57
2023/08/16 12:24:33;;;;;;;3.70;3.30;;;;;;;30.30;65.24;97859.44;18240735;32;20050;-56
2023/08/16 12:34:38;;;;;;;4.18;3.65;;;;;;;30.70;67.56;97861.06;18239376;32;20367;-56
2023/08/16 12:45:01;;;;;;;6.45;3.75;;;;;;;31.11;68.71;97853.44;18239498;32;20054;-57
2023/08/16 12:55:06;;;;;;;3.80;3.03;;;;;;;31.55;71.20;97833.31;18239763;32;20084;-57
2023/08/16 13:05:10;;;;;;;3.22;2.75;;;;;;;31.91;62.41;97827.53;18237785;32;20043;-57
2023/08/16 13:15:14;;;;;;;6.20;3.15;;;;;;;32.31;57.35;97830.06;18238408;32;20378;-57
2023/08/16 13:25:29;;;;;;;5.28;2.95;;;;;;;32.63;52.10;97815.03;18237673;32;20076;-57
2023/08/16 13:35:43;;;;;;;;;;;;;;;32.85;49.06;97803.59;18236596;32;20062;-57
2023/08/16 13:45:50;;;;;;;3.50;2.70;;;;;;;33.36;47.16;97801.84;18237805;32;19997;-57
2023/08/16 13:55:57;;;;;;;3.70;2.50;;;;;;;33.75;42.90;97791.28;18236765;32;20442;-57
2023/08/16 14:06:06;;;;;;;4.03;2.87;;;;;;;33.82;41.77;97798.84;18236936;32;20370;-57
2023/08/16 14:16:10;;;;;;;5.50;2.78;;;;;;;34.16;46.90;97797.91;18236089;32;20466;-57
2023/08/16 14:26:18;;;;;;;3.00;2.58;;;;;;;34.16;39.52;97781.06;18235463;32;20446;-56
2023/08/16 14:36:24;;;;;;;3.28;2.60;;;;;;;34.22;39.94;97782.97;18234447;32;20062;-56
2023/08/16 14:46:28;;;;;;;3.30;3.00;;;;;;;34.11;37.60;97774.72;18233071;32;20102;-56
2023/08/16 14:56:32;;;;;;;3.28;2.42;;;;;;;33.41;43.47;97775.34;18232676;32;20096;-56
2023/08/16 15:06:35;;;;;;;4.28;2.60;;;;;;;33.09;43.46;97774.50;18233497;32;20118;-56
2023/08/16 15:16:39;;;;;;;6.18;2.67;;;;;;;32.67;45.36;97759.78;18232555;32;20054;-56
2023/08/16 15:26:45;;;;;;;3.10;2.65;;;;;;;32.10;42.64;97761.09;18231840;32;20050;-56
2023/08/16 15:36:52;;;;;;;4.12;3.15;;;;;;;31.47;nan;97742.34;18231126;32;20053;-56
2023/08/16 15:46:57;;;;;;;2.97;2.62;;;;;;;31.06;49.96;97732.56;18241070;32;20498;-56
2023/08/16 15:57:01;;;;;;;3.25;2.83;;;;;;;30.95;51.71;97745.75;18251833;32;20055;-55
2023/08/16 16:07:05;;;;;;;3.28;2.62;;;;;;;30.57;58.41;97743.50;18251498;32;20358;-56
2023/08/16 16:17:21;;;;;;;3.83;3.12;;;;;;;30.30;56.10;97726.38;18251589;32;20098;-56
2023/08/16 16:27:26;;;;;;;6.60;3.30;;;;;;;29.88;63.18;97711.28;18249725;32;20405;-56
2023/08/16 16:37:30;;;;;;;3.90;3.50;;;;;;;29.90;62.41;97704.13;18250909;32;20054;-56
2023/08/16 16:47:35;;;;;;;5.22;3.55;;;;;;;29.56;72.94;97714.78;18249319;32;20067;-56
2023/08/16 16:57:40;;;;;;;6.37;3.83;;;;;;;29.21;83.50;97716.28;18245111;32;20400;-57
2023/08/16 17:07:45;;;;;;;4.68;3.33;;;;;;;30.50;76.49;97731.56;18238661;32;20058;-56
2023/08/16 17:17:49;;;;;;;3.80;3.40;;;;;;;29.88;69.86;97714.84;18237380;32;20098;-56
2023/08/16 17:27:54;;;;;;;4.03;3.30;;;;;;;28.88;77.86;97732.88;18237791;32;20062;-57
2023/08/16 17:37:58;;;;;;;4.45;3.25;;;;;;;28.36;84.96;97734.94;18236272;32;20103;-55
2023/08/16 17:48:01;;;;;;;3.53;3.00;;;;;;;27.77;97.70;97734.88;18236642;32;20366;-56
2023/08/16 17:58:06;;;;;;;4.10;3.00;;;;;;;27.27;100.00;97743.47;18235511;32;20373;-56
2023/08/16 18:08:11;;;;;;;3.60;3.03;;;;;;;26.88;100.00;97761.25;18235677;32;20073;-56
2023/08/16 18:18:16;;;;;;;4.05;3.08;;;;;;;26.50;100.00;97763.06;18234766;32;20438;-55
2023/08/16 18:28:19;;;;;;;5.55;2.90;;;;;;;26.07;100.00;97756.88;18235367;32;20065;-55
2023/08/16 18:38:22;;;;;;;3.53;2.80;;;;;;;25.65;100.00;97766.81;18234974;32;20062;-55
2023/08/16 18:48:27;;;;;;;4.93;3.22;;;;;;;25.23;100.00;97773.09;18234541;32;20058;-55
2023/08/16 18:58:34;;;;;;;5.50;3.42;;;;;;;24.83;100.00;97788.88;18234658;32;20350;-56
2023/08/16 19:08:37;;;;;;;4.03;3.00;;;;;;;24.50;100.00;97798.37;18233809;32;20069;-55
2023/08/16 19:18:40;;;;;;;4.68;3.20;;;;;;;24.19;100.00;97816.59;18206709;32;20403;-55
2023/08/16 19:28:44;;;;;;;5.07;3.15;;;;;;;23.92;100.00;97816.31;18232421;32;20103;-55
2023/08/16 19:38:46;;;;;;;5.97;2.83;;;;;;;23.73;100.00;97818.94;18232039;32;20131;-54
2023/08/16 19:48:50;;;;;;;6.70;3.60;;;;;;;23.52;100.00;97836.53;18230961;32;20446;-55
2023/08/16 19:58:56;;;;;;;4.82;2.97;;;;;;;23.34;100.00;97842.34;18230336;32;20055;-56
2023/08/16 20:08:59;;;;;;;4.30;3.40;;;;;;;23.18;100.00;97845.03;18229728;32;20062;-56
2023/08/16 20:19:03;;;;;;;4.40;3.35;;;;;;;22.99;100.00;97856.66;18229091;32;20058;-56
2023/08/16 20:29:06;;;;;;;4.72;3.60;;;;;;;22.86;100.00;97866.09;18216523;32;20066;-57
2023/08/16 20:39:10;;;;;;;4.25;3.30;;;;;;;22.77;100.00;97873.69;18238933;32;20392;-55
2023/08/16 20:49:13;;;;;;;3.75;3.37;;;;;;;22.66;100.00;97873.34;18239864;32;20400;-56
2023/08/16 20:59:16;;;;;;;4.12;3.40;;;;;;;22.57;100.00;97875.41;18238223;32;20057;-56
2023/08/16 21:09:19;;;;;;;3.95;3.55;;;;;;;22.42;100.00;97863.12;18238939;32;20058;-56
2023/08/16 21:19:22;;;;;;;4.40;4.00;;;;;;;22.31;100.00;97858.06;18238572;32;20100;-56
2023/08/16 21:29:28;;;;;;;;;;;;;;;22.20;100.00;97851.37;18238033;32;20389;-56
2023/08/16 21:39:31;;;;;;;5.53;3.85;;;;;;;22.08;100.00;97840.34;18237706;32;19957;-56
2023/08/16 21:49:35;;;;;;;7.03;3.75;;;;;;;21.95;100.00;97840.34;18235524;32;20434;-56
2023/08/16 21:59:39;;;;;;;4.62;3.78;;;;;;;21.84;100.00;97839.16;18236743;32;20111;-55
2023/08/16 22:09:42;;;;;;;8.43;3.97;;;;;;;21.73;100.00;97840.72;18236056;32;20079;-56
2023/08/16 22:19:45;;;;;;;3.70;3.40;;;;;;;21.63;100.00;97841.97;18234903;32;20055;-56
2023/08/16 22:29:47;;;;;;;4.45;3.92;;;;;;;21.56;100.00;97834.25;18221870;32;20055;-55
2023/08/16 22:39:50;;;;;;;4.53;3.53;;;;;;;21.52;100.00;97857.25;18234829;32;20055;-56
2023/08/16 22:49:54;;;;;;;6.82;4.22;;;;;;;21.41;100.00;97857.66;18233479;32;20114;-57
2023/08/16 22:59:58;;;;;;;4.53;4.00;;;;;;;21.29;100.00;97852.09;18233155;32;20051;-56
2023/08/16 23:10:02;;;;;;;4.30;3.90;;;;;;;21.21;100.00;97851.03;18233625;32;20351;-56
2023/08/16 23:20:06;;;;;;;4.00;3.42;;;;;;;21.14;100.00;97850.75;18233208;32;20049;-56
2023/08/16 23:30:09;;;;;;;6.03;4.07;;;;;;;21.02;100.00;97848.75;18232547;32;20089;-56
2023/08/16 23:40:12;;;;;;;;;;;;;;;20.96;100.00;97836.34;18232246;32;20090;-56
2023/08/16 23:50:15;;;;;;;7.05;3.72;;;;;;;20.86;100.00;97839.47;18231989;32;19964;-56
